Davenport, Virginia
Current Conditions -  °F | °C
As of 7:55 PM on Wednesday 22 Oct 2014 (Local Time) from KJFZ Reporting Station
Haze Haze  
Wind Chill:   Ceiling: 300
Heat Index:   Visibility: 2.5mi
Dew Point:   Wind: 7mph
Humidity: 95%   Direction: 330°NNW
Pressure: 30.18"   Gusts: NA
Location:  37.1°N, 82.14°W
Report Text: KJFZ 222355Z AUTO 33006KT 2 1/2SM BR OVC003 07/06 A3018 RMK AO2 T00680060 10076 20068
Loading
Personal Weather Stations






























Interactive Weather Map
Tropical Storm Tracking
New forecast layout! Learn more

10-Day Weather Forecast

Advertisements
Track Severe Weather on mobile